• Join FlightAware (Why Join?)
  • Login
  • US Flag 
09:53AM EST


 

Airport Tracker/Info


-or-


 

Live Flight TrackerFlight Track Log ✈ N662US ✈ 25-Jul-2013 ✈ RJAA / NRT - KJFK

Flight Track Log - Related Links

Times and Time Zones

All times are in EDT time to prevent confusion due to time zone crossing. See the N662US flight status page for this flight to view local times or setup timezone preferences in your user account.

Time Position Orientation Groundspeed Altitude Reporting Facility
EDT Latitude Longitude Course Direction KTS MPH feet Rate Location/Type
02:24AM 35.7150 140.4120 149° Southeast 199 229 1,800  Level FlightAware
02:24AM 35.6940 140.4270 150° Southeast 199 229 2,500 1,500 Climbing FlightAware
02:24AM 35.6830 140.4350 149° Southeast 202 232 2,800 1,320 Climbing FlightAware
02:25AM 35.6610 140.4500 151° Southeast 205 236 3,400 1,020 Climbing FlightAware
02:25AM 35.6360 140.4680 150° Southeast 223 257 3,800 600 Climbing FlightAware
02:26AM 35.6090 140.4870 150° Southeast 249 287 4,000 720 Climbing FlightAware
02:26AM 35.5790 140.5100 148° Southeast 273 314 4,500 960 Climbing FlightAware
02:27AM 35.5510 140.5290 151° Southeast 291 335 4,900 1,140 Climbing FlightAware
02:27AM 35.5360 140.5360 159° South 301 346 5,200 1,440 Climbing FlightAware
02:28AM 35.4890 140.5270 189° South 315 362 6,100 1,740 Climbing FlightAware
02:28AM 35.4710 140.5010 230° Southwest 321 369 6,800 1,260 Climbing FlightAware
02:29AM 35.4740 140.4350 273° West 318 366 7,300 540 Climbing FlightAware
02:29AM 35.4890 140.4120 309° West 324 373 7,300  Level FlightAware
02:29AM 35.5220 140.3900 332° Northwest 323 372 7,300  Level FlightAware
02:30AM 35.5620 140.3710 339° North 322 371 7,300  Level FlightAware
02:30AM 35.5860 140.3600 340° North 322 371 7,300  Level FlightAware
02:30AM 35.6220 140.3410 337° Northwest 322 371 7,300 60 Level FlightAware
02:31AM 35.6540 140.3220 334° Northwest 324 373 7,400 1,380 Climbing FlightAware
02:31AM 35.6930 140.3060 342° North 326 375 8,500 2,280 Climbing FlightAware
02:32AM 35.7400 140.2850 340° North 331 381 9,700 1,920 Climbing FlightAware
02:32AM 35.8010 140.2580 340° North 345 397 10,900 1,140 Climbing FlightAware
02:33AM 35.8690 140.2340 344° North 388 447 11,300 240 Climbing FlightAware
02:34AM 35.9390 140.2090 344° North 414 476 11,300 540 Level FlightAware
02:34AM 36.0080 140.1850 344° North 416 479 12,000 1,500 Climbing FlightAware
02:35AM 36.0800 140.1260 326° Northwest 423 487 13,400 1,800 Climbing FlightAware
02:36AM 36.1410 140.0670 322° Northwest 436 502 14,600 1,620 Climbing FlightAware
02:36AM 36.2120 140.0460 347° North 448 516 15,500 1,620 Climbing FlightAware
02:37AM 36.2990 140.0420 358° North 456 525 16,700 1,680 Climbing FlightAware
02:38AM 36.3850 140.0310 354° North 461 531 17,900 1,440 Climbing FlightAware
02:39AM 36.5050 140.0320 360° North 476 548 19,100 1,380 Climbing FlightAware
02:39AM 36.6030 140.0580 12° North 483 556 20,200 1,320 Climbing FlightAware
02:40AM 36.6880 140.0800 12° North 488 562 21,000 1,140 Climbing FlightAware
02:41AM 36.7790 140.1020 11° North 495 570 21,800 1,080 Climbing FlightAware
02:41AM 36.8700 140.1240 11° North 504 580 22,500 900 Climbing FlightAware
02:42AM 36.9640 140.1470 11° North 511 588 23,000 360 Climbing FlightAware
02:43AM 37.0600 140.1710 11° North 510 587 23,000  Level FlightAware
02:44AM 37.1610 140.1960 11° North 510 587 23,000  Level FlightAware
02:44AM 37.2900 140.2280 11° North 510 587 23,000 60 Level FlightAware
02:45AM 37.3700 140.2480 11° North 512 589 23,100 600 Climbing FlightAware
02:46AM 37.4890 140.2780 11° North 521 600 23,900 960 Climbing FlightAware
02:47AM 37.6050 140.3070 11° North 528 608 24,700 900 Climbing FlightAware
02:47AM 37.7030 140.3330 12° North 537 618 25,300 840 Climbing FlightAware
02:48AM 37.7900 140.3540 11° North 543 625 25,800 780 Climbing FlightAware
02:49AM 37.8890 140.3800 12° North 542 624 26,300 840 Climbing FlightAware
02:49AM 38.0020 140.4090 11° North 544 626 27,000 1,080 Climbing FlightAware
02:50AM 38.1040 140.4350 11° North 540 621 27,900 1,020 Climbing FlightAware
02:51AM 38.2440 140.4710 11° North 550 633 28,700 600 Climbing FlightAware
02:52AM 38.3560 140.5000 11° North 549 632 29,000 180 Climbing FlightAware
02:52AM 38.4500 140.5240 11° North 549 632 29,000  Level FlightAware
02:53AM 38.5290 140.5440 11° North 547 629 29,000  Level FlightAware
02:54AM 38.6420 140.5740 12° North 546 628 29,000  Level FlightAware
02:54AM 38.7520 140.6020 11° North 546 628 29,000  Level FlightAware
02:55AM 38.8230 140.6210 12° North 546 628 29,000  Level FlightAware
02:56AM 38.9400 140.6520 12° North 544 626 29,000  Level FlightAware
02:56AM 39.0400 140.6780 11° North 544 626 29,000  Level FlightAware
02:57AM 39.1430 140.7050 11° North 545 627 29,000  Level FlightAware
02:58AM 39.2410 140.7310 12° North 545 627 29,000  Level FlightAware
02:58AM 39.3550 140.7620 12° North 538 619 29,000  Level FlightAware
02:59AM 39.4580 140.7890 11° North 545 627 29,000  Level FlightAware
03:00AM 39.5590 140.8150 11° North 545 627 29,000  Level FlightAware
03:01AM 39.6820 140.8490 12° North 544 626 29,000  Level FlightAware
03:01AM 39.7800 140.8750 12° North 545 627 29,000  Level FlightAware
03:02AM 39.8670 140.8990 12° North 545 627 29,000  Level FlightAware
03:03AM 39.9780 140.9290 12° North 539 620 29,000  Level FlightAware
03:03AM 40.0790 140.9560 12° North 539 620 29,000  Level FlightAware
03:04AM 40.1770 140.9830 12° North 538 619 29,000  Level FlightAware
03:05AM 40.2860 141.0130 12° North 545 627 29,000  Level FlightAware
03:05AM 40.3880 141.0410 12° North 544 626 29,000  Level FlightAware
03:06AM 40.4970 141.0710 12° North 544 626 29,000  Level FlightAware
03:07AM 40.5850 141.0950 12° North 544 626 29,000  Level FlightAware
03:07AM 40.6830 141.1220 12° North 544 626 29,000  Level FlightAware
03:08AM 40.7820 141.1500 12° North 544 626 29,000  Level FlightAware
03:09AM 40.8750 141.1750 11° North 544 626 29,000  Level FlightAware
03:09AM 40.9810 141.2050 12° North 543 625 29,000  Level FlightAware
03:10AM 41.0750 141.2300 11° North 544 626 29,000  Level FlightAware
03:11AM 41.2210 141.2700 12° North 544 626 29,000  Level FlightAware
03:12AM 41.3320 141.3010 12° North 544 626 29,000  Level FlightAware
03:12AM 41.4340 141.3290 12° North 538 619 29,000 180 Level FlightAware
03:13AM 41.5340 141.3570 12° North 541 623 29,300 660 Climbing FlightAware
03:14AM 41.6310 141.3840 12° North 540 621 29,900 960 Climbing FlightAware
03:14AM 41.7320 141.4130 12° North 538 619 30,600 780 Climbing FlightAware
03:15AM 41.8280 141.4390 11° North 545 627 31,000 300 Climbing FlightAware
03:16AM 41.9120 141.4630 12° North 544 626 31,000  Level FlightAware
03:17AM 42.0400 141.4990 12° North 541 623 31,000  Level FlightAware
03:17AM 42.1390 141.5270 12° North 540 621 31,000  Level FlightAware
03:18AM 42.2300 141.5530 12° North 539 620 31,000  Level FlightAware
03:19AM 42.3270 141.5800 12° North 539 620 31,000  Level FlightAware
03:19AM 42.4490 141.6150 12° North 539 620 31,000  Level FlightAware
03:19AM 42.4630 141.6180 North 539 620 31,000  Level FlightAware
03:21AM 42.6290 141.6660 12° North 540 621 31,000  Level FlightAware
03:21AM 42.7130 141.6840 North 532 612 31,000  Level FlightAware
03:22AM 42.8260 141.6920 North 533 613 31,000  Level FlightAware
03:23AM 42.9300 141.6970 North 533 613 31,000  Level FlightAware
03:23AM 43.0150 141.7000 North 533 613 31,000  Level FlightAware
03:24AM 43.1120 141.7040 North 533 613 31,000  Level FlightAware
03:25AM 43.2220 141.7090 North 534 615 31,000  Level FlightAware
03:25AM 43.3290 141.7150 North 534 615 31,000  Level FlightAware
03:26AM 43.4280 141.7200 North 534 615 31,000  Level FlightAware
03:27AM 43.5390 141.7240 North 533 613 31,000  Level FlightAware
03:27AM 43.6380 141.7270 North 533 613 31,000  Level FlightAware
03:28AM 43.7380 141.7310 North 533 613 31,000  Level FlightAware
03:29AM 43.8400 141.7350 North 533 613 31,000  Level FlightAware
03:29AM 43.9400 141.7390 North 533 613 31,000  Level FlightAware
03:30AM 44.0610 141.7450 North 532 612 31,000  Level FlightAware
03:31AM 44.1580 141.7490 North 532 612 31,000  Level FlightAware
03:31AM 44.2610 141.7530 North 532 612 31,000  Level FlightAware
03:32AM 44.3590 141.7570 North 532 612 31,000  Level FlightAware
03:33AM 44.4620 141.7620 North 532 612 31,000  Level FlightAware
03:33AM 44.5630 141.7660 North 533 613 31,000  Level FlightAware
03:34AM 44.6620 141.7710 North 532 612 31,000  Level FlightAware
03:35AM 44.7620 141.7750 North 532 612 31,000  Level FlightAware
03:35AM 44.8530 141.7790 North 531 611 31,000  Level FlightAware
03:36AM 44.9140 141.7810 North 532 612 31,000  Level FlightAware
03:37AM 45.0510 141.7880 North 532 612 31,000  Level FlightAware
03:37AM 45.1460 141.7930 North 532 612 31,000  Level FlightAware
03:38AM 45.2400 141.7980 North 534 615 31,000  Level FlightAware
03:39AM 45.3530 141.8030 North 543 625 31,000  Level FlightAware
03:40AM 45.4140 141.8070 North 543 625 31,000  Level FlightAware
03:40AM 45.5900 141.8230 North 535 616 31,000  Level FlightAware
03:42AM 45.7930 141.8430 North 544 626 31,000  Level FlightAware
03:42AM 45.9040 141.8550 North 544 626 31,000  Level FlightAware
03:43AM 46.0170 141.8660 North 544 626 31,000  Level FlightAware
03:44AM 46.1210 141.8760 North 535 616 31,000  Level FlightAware
03:44AM 46.2220 141.8870 North 534 615 31,000  Level FlightAware
03:45AM 46.3200 141.8970 North 533 613 31,000  Level FlightAware
03:46AM 46.4310 141.9090 North 532 612 31,000  Level FlightAware
03:47AM 46.5330 141.9190 North 532 612 31,000  Level FlightAware
03:47AM 46.6320 141.9300 North 532 612 31,000  Level FlightAware
03:48AM 46.7330 141.9400 North 531 611 31,000  Level FlightAware
03:49AM 46.8330 141.9510 North 532 612 31,000  Level FlightAware
03:49AM 46.9200 141.9600 North 531 611 31,000  Level FlightAware
03:50AM 47.0260 141.9720 North 531 611 31,000  Level FlightAware
03:51AM 47.0960 141.9790 North 532 612 31,000  Level FlightAware
03:51AM 47.1730 141.9870 North 532 612 31,000  Level FlightAware
03:52AM 47.2480 141.9950 North 532 612 31,000  Level FlightAware
03:53AM 47.3480 142.0050 North 532 612 31,000  Level FlightAware
03:53AM 47.4230 142.0130 North 532 612 31,000  Level FlightAware
03:54AM 47.5250 142.0230 North 532 612 31,000  Level FlightAware
03:55AM 47.6030 142.0310 North 532 612 31,000  Level FlightAware
03:55AM 47.7030 142.0420 North 532 612 31,000  Level FlightAware
03:56AM 47.7840 142.0500 North 532 612 31,000  Level FlightAware
03:57AM 47.8840 142.0610 North 532 612 31,000  Level FlightAware
03:57AM 47.9600 142.0680 North 532 612 31,000  Level FlightAware
03:58AM 48.0350 142.0760 North 532 612 31,000  Level FlightAware
03:59AM 48.1350 142.0870 North 532 612 31,000  Level FlightAware
03:59AM 48.2100 142.0950 North 532 612 31,000  Level FlightAware
04:00AM 48.3120 142.1050 North 532 612 31,000  Level FlightAware
04:03AM 48.5799 142.3070 26° Northeast  Level Estimated
04:04AM 48.6997 142.3981 27° Northeast  Level Estimated
04:05AM 48.8195 142.4897 27° Northeast  Level Estimated
04:06AM 48.9392 142.5817 27° Northeast  Level Estimated
04:07AM 49.0588 142.6741 27° Northeast  Level Estimated
04:08AM 49.1784 142.7670 27° Northeast  Level Estimated
04:09AM 49.2978 142.8604 27° Northeast  Level Estimated
04:10AM 49.4172 142.9542 27° Northeast  Level Estimated
04:11AM 49.5366 143.0485 27° Northeast  Level Estimated
04:12AM 49.6558 143.1432 27° Northeast  Level Estimated
04:13AM 49.7750 143.2384 27° Northeast  Level Estimated
04:14AM 49.8941 143.3340 27° Northeast  Level Estimated
04:15AM 50.0131 143.4301 27° Northeast  Level Estimated
04:16AM 50.1320 143.5267 27° Northeast  Level Estimated
04:17AM 50.2509 143.6238 28° Northeast  Level Estimated
04:18AM 50.3696 143.7214 28° Northeast  Level Estimated
04:19AM 50.4883 143.8194 28° Northeast  Level Estimated
04:20AM 50.6069 143.9180 28° Northeast  Level Estimated
04:21AM 50.7254 144.0170 28° Northeast  Level Estimated
04:22AM 50.8438 144.1166 28° Northeast  Level Estimated
04:23AM 50.9622 144.2167 28° Northeast  Level Estimated
04:24AM 51.0805 144.3172 28° Northeast  Level Estimated
04:25AM 51.1986 144.4183 28° Northeast  Level Estimated
04:26AM 51.3171 144.5202 28° Northeast  Level Estimated
04:27AM 51.4354 144.6226 28° Northeast  Level Estimated
04:28AM 51.5536 144.7256 28° Northeast  Level Estimated
04:29AM 51.6717 144.8290 29° Northeast  Level Estimated
04:30AM 51.7898 144.9331 29° Northeast  Level Estimated
04:31AM 51.9077 145.0376 29° Northeast  Level Estimated
04:32AM 52.0256 145.1427 29° Northeast  Level Estimated
04:33AM 52.1434 145.2484 29° Northeast  Level Estimated
04:34AM 52.2611 145.3546 29° Northeast  Level Estimated
04:35AM 52.3787 145.4615 29° Northeast  Level Estimated
04:36AM 52.4961 145.5688 29° Northeast  Level Estimated
04:37AM 52.6135 145.6768 29° Northeast  Level Estimated
04:38AM 52.7308 145.7853 29° Northeast  Level Estimated
04:39AM 52.8480 145.8944 29° Northeast  Level Estimated
04:40AM 52.9651 146.0041 29° Northeast  Level Estimated
04:41AM 53.0821 146.1144 30° Northeast  Level Estimated
04:42AM 53.1990 146.2253 30° Northeast  Level Estimated
04:43AM 53.3158 146.3368 30° Northeast  Level Estimated
04:44AM 53.4324 146.4489 30° Northeast  Level Estimated
04:45AM 53.5490 146.5616 30° Northeast  Level Estimated
04:46AM 53.6655 146.6750 30° Northeast  Level Estimated
04:47AM 53.7818 146.7890 30° Northeast  Level Estimated
04:48AM 53.8981 146.9036 30° Northeast  Level Estimated
04:49AM 54.0142 147.0188 30° Northeast  Level Estimated
04:50AM 54.1302 147.1347 30° Northeast  Level Estimated
04:51AM 54.2462 147.2513 30° Northeast  Level Estimated
04:52AM 54.3620 147.3685 31° Northeast  Level Estimated
04:53AM 54.4776 147.4863 31° Northeast  Level Estimated
04:54AM 54.5932 147.6049 31° Northeast  Level Estimated
04:55AM 54.7087 147.7241 31° Northeast  Level Estimated
04:56AM 54.8240 147.8440 31° Northeast  Level Estimated
04:57AM 54.9392 147.9646 31° Northeast  Level Estimated
04:58AM 55.0543 148.0858 31° Northeast  Level Estimated
04:59AM 55.1693 148.2078 31° Northeast  Level Estimated
05:00AM 55.2842 148.3305 31° Northeast  Level Estimated
05:01AM 55.3989 148.4539 31° Northeast  Level Estimated
05:02AM 55.5135 148.5780 31° Northeast  Level Estimated
05:03AM 55.6280 148.7028 32° Northeast  Level Estimated
05:04AM 55.7424 148.8284 32° Northeast  Level Estimated
05:05AM 55.8566 148.9547 32° Northeast  Level Estimated
05:06AM 55.9707 149.0817 32° Northeast  Level Estimated
05:07AM 56.0846 149.2095 32° Northeast  Level Estimated
05:08AM 56.1985 149.3380 32° Northeast  Level Estimated
05:09AM 56.3122 149.4673 32° Northeast  Level Estimated
05:10AM 56.4257 149.5974 32° Northeast  Level Estimated
05:11AM 56.5392 149.7283 32° Northeast  Level Estimated
05:12AM 56.6524 149.8600 33° Northeast  Level Estimated
05:13AM 56.7656 149.9924 33° Northeast  Level Estimated
05:14AM 56.8786 150.1256 33° Northeast  Level Estimated
05:15AM 56.9915 150.2597 33° Northeast  Level Estimated
05:16AM 57.1042 150.3946 33° Northeast  Level Estimated
05:17AM 57.2168 150.5302 33° Northeast  Level Estimated
05:18AM 57.3292 150.6668 33° Northeast  Level Estimated
05:19AM 57.4415 150.8041 33° Northeast  Level Estimated
05:20AM 57.5536 150.9423 33° Northeast  Level Estimated
05:21AM 57.6656 151.0814 34° Northeast  Level Estimated
05:22AM 57.7774 151.2213 34° Northeast  Level Estimated
05:23AM 57.8890 151.3621 34° Northeast  Level Estimated
05:24AM 58.0006 151.5037 34° Northeast  Level Estimated
05:25AM 58.1125 151.6471 34° Northeast  Level Estimated
05:26AM 58.2243 151.7913 34° Northeast  Level Estimated
05:27AM 58.3360 151.9365 34° Northeast  Level Estimated
05:28AM 58.4474 152.0825 34° Northeast  Level Estimated
05:29AM 58.5588 152.2295 35° Northeast  Level Estimated
05:30AM 58.6699 152.3775 35° Northeast  Level Estimated
05:31AM 58.7809 152.5264 35° Northeast  Level Estimated
05:32AM 58.8917 152.6762 35° Northeast  Level Estimated
05:33AM 59.0023 152.8270 35° Northeast  Level Estimated
05:34AM 59.1127 152.9787 35° Northeast  Level Estimated
05:35AM 59.2230 153.1315 35° Northeast  Level Estimated
05:36AM 59.3331 153.2852 35° Northeast  Level Estimated
05:37AM 59.4430 153.4400 36° Northeast  Level Estimated
05:38AM 59.5527 153.5957 36° Northeast  Level Estimated
05:39AM 59.6623 153.7525 36° Northeast  Level Estimated
05:40AM 59.7716 153.9102 36° Northeast  Level Estimated
05:41AM 59.8808 154.0691 36° Northeast  Level Estimated
05:42AM 59.9897 154.2289 36° Northeast  Level Estimated
05:43AM 60.0985 154.3899 36° Northeast  Level Estimated
05:44AM 60.2071 154.5518 37° Northeast  Level Estimated
05:45AM 60.3154 154.7149 37° Northeast  Level Estimated
05:46AM 60.4236 154.8791 37° Northeast  Level Estimated
05:47AM 60.5316 155.0443 37° Northeast  Level Estimated
05:48AM 60.6393 155.2106 37° Northeast  Level Estimated
05:49AM 60.7469 155.3781 37° Northeast  Level Estimated
05:50AM 60.8542 155.5467 37° Northeast  Level Estimated
05:51AM 60.9614 155.7164 38° Northeast  Level Estimated
05:52AM 61.0683 155.8873 38° Northeast  Level Estimated
05:53AM 61.1750 156.0593 38° Northeast  Level Estimated
05:54AM 61.2815 156.2325 38° Northeast  Level Estimated
05:55AM 61.3877 156.4069 38° Northeast  Level Estimated
05:56AM 61.4938 156.5824 38° Northeast  Level Estimated
05:57AM 61.5996 156.7592 38° Northeast  Level Estimated
05:58AM 61.7052 156.9372 39° Northeast  Level Estimated
05:59AM 61.8105 157.1164 39° Northeast  Level Estimated
06:00AM 61.9156 157.2968 39° Northeast  Level Estimated
06:01AM 62.0205 157.4784 39° Northeast  Level Estimated
06:02AM 62.1251 157.6614 39° Northeast  Level Estimated
06:03AM 62.2295 157.8456 39° Northeast  Level Estimated
06:04AM 62.3336 158.0310 40° Northeast  Level Estimated
06:05AM 62.4375 158.2178 40° Northeast  Level Estimated
06:06AM 62.5412 158.4058 40° Northeast  Level Estimated
06:07AM 62.6446 158.5952 40° Northeast  Level Estimated
06:08AM 62.7477 158.7859 40° Northeast  Level Estimated
06:09AM 62.8506 158.9779 40° Northeast  Level Estimated
06:10AM 62.9532 159.1712 41° Northeast  Level Estimated
06:11AM 63.0555 159.3660 41° Northeast  Level Estimated
06:12AM 63.1576 159.5621 41° Northeast  Level Estimated
06:13AM 63.2594 159.7596 41° Northeast  Level Estimated
06:14AM 63.3609 159.9585 41° Northeast  Level Estimated
06:15AM 63.4622 160.1587 41° Northeast  Level Estimated
06:16AM 63.5631 160.3604 42° Northeast  Level Estimated
06:17AM 63.6638 160.5636 42° Northeast  Level Estimated
06:18AM 63.7642 160.7682 42° Northeast  Level Estimated
06:19AM 63.8643 160.9742 42° Northeast  Level Estimated
06:20AM 63.9641 161.1817 42° Northeast  Level Estimated
06:21AM 64.0636 161.3907 43° Northeast  Level Estimated
06:22AM 64.1628 161.6013 43° Northeast  Level Estimated
06:23AM 64.2617 161.8132 43° Northeast  Level Estimated
06:24AM 64.3603 162.0268 43° Northeast  Level Estimated
06:25AM 64.4586 162.2418 43° Northeast  Level Estimated
06:26AM 64.5566 162.4585 43° Northeast  Level Estimated
06:27AM 64.6542 162.6766 44° Northeast  Level Estimated
06:28AM 64.7515 162.8964 44° Northeast  Level Estimated
06:29AM 64.8485 163.1177 44° Northeast  Level Estimated
06:30AM 64.9452 163.3406 44° Northeast  Level Estimated
06:31AM 65.0415 163.5652 44° Northeast  Level Estimated
06:32AM 65.1375 163.7913 45° Northeast  Level Estimated
06:33AM 65.2331 164.0191 45° Northeast  Level Estimated
06:34AM 65.3284 164.2486 45° Northeast  Level Estimated
06:35AM 65.4234 164.4797 45° Northeast  Level Estimated
06:36AM 65.5180 164.7125 46° Northeast  Level Estimated
06:37AM 65.6122 164.9469 46° Northeast  Level Estimated
06:38AM 65.7060 165.1831 46° Northeast  Level Estimated
06:39AM 65.7996 165.4211 46° Northeast  Level Estimated
06:40AM 65.8927 165.6607 46° Northeast  Level Estimated
06:41AM 65.9854 165.9021 47° Northeast  Level Estimated
06:42AM 66.0778 166.1452 47° Northeast  Level Estimated
06:43AM 66.1698 166.3901 47° Northeast  Level Estimated
06:44AM 66.2614 166.6368 47° Northeast  Level Estimated
06:45AM 66.3527 166.8856 47° Northeast  Level Estimated
06:46AM 66.4436 167.1363 48° Northeast  Level Estimated
06:47AM 66.5341 167.3888 48° Northeast  Level Estimated
06:48AM 66.6243 167.6431 48° Northeast  Level Estimated
06:49AM 66.7140 167.8992 48° Northeast  Level Estimated
06:50AM 66.8032 168.1573 49° Northeast  Level Estimated
06:51AM 66.8921 168.4172 49° Northeast  Level Estimated
06:52AM 66.9805 168.6790 49° Northeast  Level Estimated
06:53AM 67.0685 168.9427 49° Northeast  Level Estimated
06:54AM 67.1561 169.2083 50° Northeast  Level Estimated
06:55AM 67.2432 169.4759 50° Northeast  Level Estimated
06:56AM 67.3298 169.7453 50° Northeast  Level Estimated
06:57AM 67.4160 170.0168 50° Northeast  Level Estimated
06:58AM 67.5018 170.2902 51° Northeast  Level Estimated
06:59AM 67.5871 170.5656 51° Northeast  Level Estimated
07:00AM 67.6719 170.8430 51° Northeast  Level Estimated
07:01AM 67.7562 171.1224 51° Northeast  Level Estimated
07:02AM 67.8401 171.4037 52° Northeast  Level Estimated
07:03AM 67.9234 171.6872 52° Northeast  Level Estimated
07:04AM 68.0063 171.9726 52° Northeast  Level Estimated
07:05AM 68.0887 172.2601 52° Northeast  Level Estimated
07:06AM 68.1706 172.5497 53° Northeast  Level Estimated
07:07AM 68.2520 172.8413 53° Northeast  Level Estimated
07:08AM 68.3328 173.1350 53° Northeast  Level Estimated
07:09AM 68.4132 173.4308 53° Northeast  Level Estimated
07:10AM 68.4930 173.7287 54° Northeast  Level Estimated
07:11AM 68.5723 174.0287 54° Northeast  Level Estimated
07:12AM 68.6510 174.3308 54° Northeast  Level Estimated
07:13AM 68.7292 174.6350 55° Northeast  Level Estimated
07:14AM 68.8068 174.9413 55° Northeast  Level Estimated
07:15AM 68.8839 175.2498 55° Northeast  Level Estimated
07:16AM 68.9605 175.5605 55° Northeast  Level Estimated
07:17AM 69.0364 175.8733 56° Northeast  Level Estimated
07:18AM 69.1118 176.1883 56° Northeast  Level Estimated
07:19AM 69.1866 176.5054 56° Northeast  Level Estimated
07:20AM 69.2608 176.8247 57° Northeast  Level Estimated
07:21AM 69.3344 177.1463 57° Northeast  Level Estimated
07:22AM 69.4075 177.4699 57° Northeast  Level Estimated
07:23AM 69.4799 177.7958 58° Northeast  Level Estimated
07:24AM 69.5517 178.1239 58° Northeast  Level Estimated
07:25AM 69.6229 178.4542 58° Northeast  Level Estimated
07:26AM 69.6934 178.7867 58° Northeast  Level Estimated
07:27AM 69.7634 179.1214 59° Northeast  Level Estimated
07:28AM 69.8326 179.4583 59° Northeast  Level Estimated
07:29AM 69.9013 179.7975 59° Northeast  Level Estimated
07:30AM 69.9693 -179.8612 60° Northeast  Level Estimated
07:31AM 70.0366 -179.5176 60° Northeast  Level Estimated
07:32AM 70.1033 -179.1718 60° Northeast  Level Estimated
07:33AM 70.1693 -178.8238 61° Northeast  Level Estimated
07:34AM 70.2346 -178.4736 61° Northeast  Level Estimated
07:35AM 70.2992 -178.1211 61° Northeast  Level Estimated
07:36AM 70.3632 -177.7664 62° Northeast  Level Estimated
07:37AM 70.4264 -177.4096 62° Northeast  Level Estimated
07:38AM 70.4889 -177.0505 62° Northeast  Level Estimated
07:39AM 70.5508 -176.6892 63° Northeast  Level Estimated
07:40AM 70.6118 -176.3257 63° Northeast  Level Estimated
07:41AM 70.6722 -175.9600 63° Northeast  Level Estimated
07:42AM 70.7319 -175.5921 64° Northeast  Level Estimated
07:43AM 70.7908 -175.2220 64° Northeast  Level Estimated
07:44AM 70.8489 -174.8498 64° Northeast  Level Estimated
07:45AM 70.9063 -174.4754 65° Northeast  Level Estimated
07:46AM 70.9630 -174.0988 65° Northeast  Level Estimated
07:47AM 71.0188 -173.7201 65° Northeast  Level Estimated
07:48AM 71.0739 -173.3392 66° East  Level Estimated
07:49AM 71.1283 -172.9557 66° East  Level Estimated
07:49AM 72.0333 -167.5333 68° East 560 644 33,000  Level Anchorage Center
07:50AM 71.1819 -172.5701 67° East  Level Estimated
07:50AM 72.0500 -167.0333 84° East 550 633 33,000  Level Anchorage Center
07:51AM 71.2347 -172.1823 67° East  Level Estimated
07:51AM 72.0500 -166.5500 90° East 540 621 33,000  Level Anchorage Center
07:52AM 71.2867 -171.7925 67° East  Level Estimated
07:52AM 72.0667 -166.0500 84° East 550 633 33,000  Level Anchorage Center
07:53AM 71.3379 -171.4006 68° East  Level Estimated
07:53AM 72.0833 -165.5667 83° East 540 621 33,000  Level Anchorage Center
07:54AM 71.3883 -171.0066 68° East  Level Estimated
07:54AM 72.1000 -165.0833 83° East 540 621 33,000  Level Anchorage Center
07:55AM 72.1167 -164.6000 83° East 550 633 33,000  Level Anchorage Center
07:56AM 72.1333 -164.1000 84° East 560 644 33,000  Level Anchorage Center
07:57AM 72.1500 -163.6167 83° East 540 621 33,000  Level Anchorage Center
07:58AM 72.1667 -163.1167 84° East 550 633 33,000  Level Anchorage Center
07:59AM 72.1833 -162.6333 83° East 550 633 33,000  Level Anchorage Center
08:00AM 72.2000 -162.1333 84° East 550 633 33,000  Level Anchorage Center
08:01AM 72.2000 -161.6500 90° East 550 633 33,000  Level Anchorage Center
08:02AM 72.2167 -161.1500 84° East 550 633 33,000  Level Anchorage Center
08:03AM 72.2333 -160.6500 84° East 550 633 33,000  Level Anchorage Center
08:04AM 72.2333 -160.1500 90° East 550 633 33,000  Level Anchorage Center
08:05AM 72.2333 -159.6667 90° East 550 633 33,000  Level Anchorage Center
08:06AM 72.2500 -159.1667 84° East 550 633 33,000  Level Anchorage Center
08:07AM 72.2500 -158.6667 90° East 550 633 33,000  Level Anchorage Center
08:08AM 72.2500 -158.1667 90° East 540 621 33,000  Level Anchorage Center
08:09AM 72.2500 -157.6667 90° East 540 621 33,000  Level Anchorage Center
08:10AM 72.2500 -157.1667 90° East 550 633 33,000  Level Anchorage Center
08:11AM 72.2500 -156.6833 90° East 550 633 33,000  Level Anchorage Center
08:12AM 72.2500 -156.1833 90° East 550 633 33,000  Level Anchorage Center
08:13AM 72.2500 -155.6833 82° East 540 621 33,000  Level Anchorage Center
08:14AM 72.2706 -155.6743 82° East  Level Estimated
08:14AM 72.2333 -155.2000 96° East 540 621 33,000  Level Anchorage Center
08:15AM 72.2333 -154.7167 90° East 540 621 33,000  Level Anchorage Center
08:16AM 72.2333 -154.2333 90° East 540 621 33,000  Level Anchorage Center
08:17AM 72.2167 -153.7333 96° East 540 621 33,000  Level Anchorage Center
08:18AM 72.2167 -153.2333 90° East 550 633 33,000 480 Level Anchorage Center
08:19AM 72.2000 -152.7500 96° East 540 621 34,000 960 Climbing Anchorage Center
08:20AM 72.1833 -152.2500 96° East 550 633 35,000 480 Climbing Anchorage Center
08:21AM 72.1667 -151.7500 96° East 560 644 35,000  Level Anchorage Center
08:22AM 72.1500 -151.2667 96° East 550 633 35,000  Level Anchorage Center
08:23AM 72.1500 -150.7833 90° East 540 621 35,000  Level Anchorage Center
08:24AM 72.1333 -150.3167 96° East 530 610 35,000  Level Anchorage Center
08:25AM 72.1167 -149.8167 96° East 540 621 35,000  Level Anchorage Center
08:26AM 72.0833 -149.3333 102° East 540 621 35,000  Level Anchorage Center
08:27AM 72.0667 -148.8500 96° East 550 633 35,000  Level Anchorage Center
08:29AM 72.0500 -148.3667 96° East 550 633 35,000  Level Anchorage Center
08:30AM 72.0167 -147.8833 102° East 550 633 35,000  Level Anchorage Center
08:31AM 72.0000 -147.3833 96° East 550 633 35,000  Level Anchorage Center
08:32AM 71.9667 -146.9000 102° East 550 633 35,000  Level Anchorage Center
08:33AM 71.9500 -146.4333 96° East 530 610 35,000  Level Anchorage Center
08:34AM 71.9167 -145.9500 102° East 550 633 35,000  Level Anchorage Center
08:35AM 71.8833 -145.4833 103° East 540 621 35,000  Level Anchorage Center
08:36AM 71.8667 -145.0167 96° East 540 621 35,000  Level Anchorage Center
08:37AM 71.8333 -144.5500 103° East 550 633 35,000  Level Anchorage Center
08:38AM 71.8000 -144.0833 103° East 540 621 35,000  Level Anchorage Center
08:39AM 71.7667 -143.6167 103° East 530 610 35,000  Level Anchorage Center
08:40AM 71.7333 -143.1667 103° East 530 610 35,000  Level Anchorage Center
08:41AM 71.7000 -142.7000 103° East 540 621 35,000  Level Anchorage Center
08:42AM 71.6667 -142.2333 103° East 540 621 35,000  Level Anchorage Center
08:43AM 71.6167 -141.7833 109° East 540 621 35,000  Level Anchorage Center
08:44AM 71.5833 -141.3333 103° East 540 621 35,000  Level Anchorage Center
08:45AM 71.5500 -140.8667 103° East 540 621 35,000  Level Anchorage Center
08:46AM 71.5333 -140.4000 96° East 560 644 35,000  Level Anchorage Center
08:47AM 71.5333 -139.9500 90° East 530 610 35,000  Level Anchorage Center
08:48AM 71.5167 -139.4833 96° East 530 610 35,000  Level Anchorage Center
08:51AM 71.4824 -138.6593 97° East  Level FlightAware Approximate
08:58AM 71.3241 -135.6256 98° East  Level FlightAware Approximate
08:59AM 71.2975 -135.1965 101° East  Level FlightAware Approximate
09:00AM 71.2700 -134.7686 101° East  Level FlightAware Approximate
09:01AM 71.2415 -134.3420 102° East  Level FlightAware Approximate
09:02AM 71.2120 -133.9166 102° East  Level FlightAware Approximate
09:03AM 71.1816 -133.4926 102° East  Level FlightAware Approximate
09:04AM 71.1502 -133.0698 103° East  Level FlightAware Approximate
09:05AM 71.1192 -132.6476 103° East  Level FlightAware Approximate
09:06AM 71.0871 -132.2267 103° East  Level FlightAware Approximate
09:07AM 71.0542 -131.8071 103° East  Level FlightAware Approximate
09:08AM 71.0203 -131.3890 104° East  Level FlightAware Approximate
09:09AM 70.9854 -130.9724 104° East  Level FlightAware Approximate
09:10AM 70.9497 -130.5572 105° East  Level FlightAware Approximate
09:11AM 70.9130 -130.1436 105° East  Level FlightAware Approximate
09:12AM 70.8754 -129.7315 105° East  Level FlightAware Approximate
09:13AM 70.8368 -129.3210 106° East  Level FlightAware Approximate
09:14AM 70.7974 -128.9121 106° East  Level FlightAware Approximate
09:15AM 70.7571 -128.5048 107° East  Level FlightAware Approximate
09:16AM 70.7158 -128.0992 107° East  Level FlightAware Approximate
09:17AM 70.6737 -127.6952 107° East  Level FlightAware Approximate
09:18AM 70.6307 -127.2930 108° East  Level FlightAware Approximate
09:19AM 70.5868 -126.8925 108° East  Level FlightAware Approximate
09:20AM 70.5420 -126.4938 108° East  Level FlightAware Approximate
09:21AM 70.4964 -126.0968 109° East  Level FlightAware Approximate
09:22AM 70.4499 -125.7016 109° East  Level FlightAware Approximate
09:23AM 70.4025 -125.3083 110° East  Level FlightAware Approximate
09:24AM 70.3543 -124.9168 110° East  Level FlightAware Approximate
09:25AM 70.3053 -124.5271 110° East  Level FlightAware Approximate
09:26AM 70.2554 -124.1393 111° Southeast  Level FlightAware Approximate
09:27AM 70.2047 -123.7534 111° Southeast  Level FlightAware Approximate
09:28AM 70.1532 -123.3695 111° Southeast  Level FlightAware Approximate
09:29AM 70.1008 -122.9874 112° Southeast  Level FlightAware Approximate
09:30AM 70.0477 -122.6073 112° Southeast  Level FlightAware Approximate
09:31AM 69.9937 -122.2291 112° Southeast  Level FlightAware Approximate
09:32AM 69.9389 -121.8529 113° Southeast  Level FlightAware Approximate
09:33AM 69.8834 -121.4787 113° Southeast  Level FlightAware Approximate
09:34AM 69.8270 -121.1065 114° Southeast  Level FlightAware Approximate
09:35AM 69.7699 -120.7362 114° Southeast  Level FlightAware Approximate
09:36AM 69.7130 -120.3743 114° Southeast  Level FlightAware Approximate
09:37AM 69.6554 -120.0143 115° Southeast  Level FlightAware Approximate
09:38AM 69.5970 -119.6562 115° Southeast  Level FlightAware Approximate
09:39AM 69.5379 -119.3001 115° Southeast  Level FlightAware Approximate
09:40AM 69.4781 -118.9460 116° Southeast  Level FlightAware Approximate
09:41AM 69.4175 -118.5939 116° Southeast  Level FlightAware Approximate
09:42AM 69.3563 -118.2437 116° Southeast  Level FlightAware Approximate
09:43AM 69.2943 -117.8956 117° Southeast  Level FlightAware Approximate
09:44AM 69.2317 -117.5494 117° Southeast  Level FlightAware Approximate
09:45AM 69.1683 -117.2053 117° Southeast  Level FlightAware Approximate
09:46AM 69.1043 -116.8631 118° Southeast  Level FlightAware Approximate
09:47AM 69.0396 -116.5230 118° Southeast  Level FlightAware Approximate
09:48AM 68.9742 -116.1849 118° Southeast  Level FlightAware Approximate
09:49AM 68.9082 -115.8487 119° Southeast  Level FlightAware Approximate
09:50AM 68.8415 -115.5146 119° Southeast  Level FlightAware Approximate
09:51AM 68.7742 -115.1825 119° Southeast  Level FlightAware Approximate
09:52AM 68.7062 -114.8524 119° Southeast  Level FlightAware Approximate
09:53AM 68.6376 -114.5244 120° Southeast  Level FlightAware Approximate
09:54AM 68.5683 -114.1983 120° Southeast  Level FlightAware Approximate
09:55AM 68.4984 -113.8743 120° Southeast  Level FlightAware Approximate
09:56AM 68.4279 -113.5522 121° Southeast  Level FlightAware Approximate
09:57AM 68.3568 -113.2322 121° Southeast  Level FlightAware Approximate
09:58AM 68.2851 -112.9142 121° Southeast  Level FlightAware Approximate
09:59AM 68.2126 -112.5983 122° Southeast  Level FlightAware Approximate
10:00AM 68.1395 -112.2845 122° Southeast  Level FlightAware Approximate
10:01AM 68.0659 -111.9728 122° Southeast  Level FlightAware Approximate
10:02AM 67.9916 -111.6630 123° Southeast  Level FlightAware Approximate
10:03AM 67.9168 -111.3552 123° Southeast  Level FlightAware Approximate
10:04AM 67.8414 -111.0493 123° Southeast  Level FlightAware Approximate
10:05AM 67.7655 -110.7454 123° Southeast  Level FlightAware Approximate
10:06AM 67.6891 -110.4432 124° Southeast  Level FlightAware Approximate
10:07AM 67.6122 -110.1431 124° Southeast  Level FlightAware Approximate
10:08AM 67.5347 -109.8449 124° Southeast  Level FlightAware Approximate
10:09AM 67.4567 -109.5486 124° Southeast  Level FlightAware Approximate
10:10AM 67.3781 -109.2543 125° Southeast  Level FlightAware Approximate
10:11AM 67.2993 -108.9615 125° Southeast  Level FlightAware Approximate
10:12AM 67.2200 -108.6703 125° Southeast  Level FlightAware Approximate
10:13AM 67.1403 -108.3810 125° Southeast  Level FlightAware Approximate
10:14AM 67.0600 -108.0937 126° Southeast  Level FlightAware Approximate
10:15AM 66.9792 -107.8082 126° Southeast  Level FlightAware Approximate
10:16AM 66.8979 -107.5247 126° Southeast  Level FlightAware Approximate
10:17AM 66.8158 -107.2437 127° Southeast  Level FlightAware Approximate
10:18AM 66.7329 -106.9650 127° Southeast  Level FlightAware Approximate
10:19AM 66.6495 -106.6881 127° Southeast  Level FlightAware Approximate
10:20AM 66.5657 -106.4132 127° Southeast  Level FlightAware Approximate
10:21AM 66.4814 -106.1401 128° Southeast  Level FlightAware Approximate
10:22AM 66.3966 -105.8688 128° Southeast  Level FlightAware Approximate
10:23AM 66.3113 -105.5994 128° Southeast  Level FlightAware Approximate
10:24AM 66.2256 -105.3318 128° Southeast  Level FlightAware Approximate
10:25AM 66.1394 -105.0661 129° Southeast  Level FlightAware Approximate
10:26AM 66.0527 -104.8021 129° Southeast  Level FlightAware Approximate
10:27AM 65.9657 -104.5399 129° Southeast  Level FlightAware Approximate
10:28AM 65.8781 -104.2795 129° Southeast  Level FlightAware Approximate
10:29AM 65.7902 -104.0209 130° Southeast  Level FlightAware Approximate
10:30AM 65.7018 -103.7641 130° Southeast  Level FlightAware Approximate
10:31AM 65.6129 -103.5090 130° Southeast  Level FlightAware Approximate
10:32AM 65.5237 -103.2556 130° Southeast  Level FlightAware Approximate
10:33AM 65.4340 -103.0040 131° Southeast  Level FlightAware Approximate
10:34AM 65.3439 -102.7541 131° Southeast  Level FlightAware Approximate
10:35AM 65.2531 -102.5066 131° Southeast  Level FlightAware Approximate
10:36AM 65.1616 -102.2614 132° Southeast  Level FlightAware Approximate
10:37AM 65.0696 -102.0179 132° Southeast  Level FlightAware Approximate
10:38AM 64.9773 -101.7761 132° Southeast  Level FlightAware Approximate
10:39AM 64.8846 -101.5360 132° Southeast  Level FlightAware Approximate
10:40AM 64.7915 -101.2975 132° Southeast  Level FlightAware Approximate
10:41AM 64.6981 -101.0607 133° Southeast  Level FlightAware Approximate
10:42AM 64.6042 -100.8254 133° Southeast  Level FlightAware Approximate
10:43AM 64.5100 -100.5919 133° Southeast  Level FlightAware Approximate
10:44AM 64.4154 -100.3599 133° Southeast  Level FlightAware Approximate
10:45AM 64.3205 -100.1295 134° Southeast  Level FlightAware Approximate
10:46AM 64.2255 -99.8999 133° Southeast  Level FlightAware Approximate
10:47AM 64.1303 -99.6698 133° Southeast  Level FlightAware Approximate
10:48AM 64.0348 -99.4414 134° Southeast  Level FlightAware Approximate
10:49AM 63.9389 -99.2144 134° Southeast  Level FlightAware Approximate
10:50AM 63.8426 -98.9891 134° Southeast  Level FlightAware Approximate
10:51AM 63.7460 -98.7653 134° Southeast  Level FlightAware Approximate
10:52AM 63.6490 -98.5430 134° Southeast  Level FlightAware Approximate
10:53AM 63.5517 -98.3222 135° Southeast  Level FlightAware Approximate
10:54AM 63.4541 -98.1029 135° Southeast  Level FlightAware Approximate
10:55AM 63.3561 -97.8851 135° Southeast  Level FlightAware Approximate
10:56AM 63.2578 -97.6688 135° Southeast  Level FlightAware Approximate
10:57AM 63.1591 -97.4540 135° Southeast  Level FlightAware Approximate
10:58AM 63.0602 -97.2406 136° Southeast  Level FlightAware Approximate
10:59AM 62.9609 -97.0287 136° Southeast  Level FlightAware Approximate
11:00AM 62.8613 -96.8182 136° Southeast  Level FlightAware Approximate
11:01AM 62.7614 -96.6092 136° Southeast  Level FlightAware Approximate
11:02AM 62.6612 -96.4015 136° Southeast  Level FlightAware Approximate
11:03AM 62.5607 -96.1953 137° Southeast  Level FlightAware Approximate
11:04AM 62.4599 -95.9904 137° Southeast  Level FlightAware Approximate
11:05AM 62.3588 -95.7870 137° Southeast  Level FlightAware Approximate
11:06AM 62.2574 -95.5849 137° Southeast  Level FlightAware Approximate
11:07AM 62.1557 -95.3841 137° Southeast  Level FlightAware Approximate
11:08AM 62.0537 -95.1847 137° Southeast  Level FlightAware Approximate
11:09AM 61.9514 -94.9867 138° Southeast  Level FlightAware Approximate
11:10AM 61.8489 -94.7899 138° Southeast  Level FlightAware Approximate
11:11AM 61.7460 -94.5945 138° Southeast  Level FlightAware Approximate
11:12AM 61.6429 -94.4004 138° Southeast  Level FlightAware Approximate
11:13AM 61.5395 -94.2075 138° Southeast  Level FlightAware Approximate
11:14AM 61.4359 -94.0160 138° Southeast  Level FlightAware Approximate
11:15AM 61.3320 -93.8257 139° Southeast  Level FlightAware Approximate
11:16AM 61.2278 -93.6367 139° Southeast  Level FlightAware Approximate
11:17AM 61.1226 -93.4505 139° Southeast  Level FlightAware Approximate
11:18AM 61.0172 -93.2657 140° Southeast  Level FlightAware Approximate
11:19AM 60.9115 -93.0822 140° Southeast  Level FlightAware Approximate
11:20AM 60.8056 -92.8999 140° Southeast  Level FlightAware Approximate
11:21AM 60.6999 -92.7176 140° Southeast  Level FlightAware Approximate
11:22AM 60.5942 -92.5358 140° Southeast  Level FlightAware Approximate
11:23AM 60.4883 -92.3553 140° Southeast  Level FlightAware Approximate
11:24AM 60.3821 -92.1759 140° Southeast  Level FlightAware Approximate
11:25AM 60.2757 -91.9976 140° Southeast  Level FlightAware Approximate
11:26AM 60.1691 -91.8205 140° Southeast  Level FlightAware Approximate
11:27AM 60.0622 -91.6446 141° Southeast  Level FlightAware Approximate
11:28AM 59.9551 -91.4698 141° Southeast  Level FlightAware Approximate
11:29AM 59.8478 -91.2962 141° Southeast  Level FlightAware Approximate
11:30AM 59.7402 -91.1236 141° Southeast  Level FlightAware Approximate
11:31AM 59.6325 -90.9522 141° Southeast  Level FlightAware Approximate
11:32AM 59.5244 -90.7818 141° Southeast  Level FlightAware Approximate
11:33AM 59.4162 -90.6126 141° Southeast  Level FlightAware Approximate
11:34AM 59.3078 -90.4444 142° Southeast  Level FlightAware Approximate
11:35AM 59.1991 -90.2773 142° Southeast  Level FlightAware Approximate
11:36AM 59.0902 -90.1113 142° Southeast  Level FlightAware Approximate
11:37AM 58.9771 -89.9499 144° Southeast  Level Estimated
11:38AM 58.8637 -89.7897 144° Southeast  Level Estimated
11:39AM 58.7501 -89.6305 144° Southeast  Level Estimated
11:40AM 58.6364 -89.4723 144° Southeast  Level Estimated
11:41AM 58.5224 -89.3151 144° Southeast  Level Estimated
11:42AM 58.4083 -89.1590 144° Southeast  Level Estimated
11:42AM 57.4167 -88.7333 145° Southeast 500 575 37,000  Level Edmonton Center
11:43AM 58.2939 -89.0039 144° Southeast  Level Estimated
11:43AM 57.3167 -88.5833 141° Southeast 500 575 37,000  Level Edmonton Center
11:44AM 58.1794 -88.8498 145° Southeast  Level Estimated
11:44AM 57.2167 -88.4500 144° Southeast 500 575 37,000  Level Edmonton Center
11:45AM 58.0647 -88.6966 145° Southeast  Level Estimated
11:45AM 57.0833 -88.3167 151° Southeast 500 575 37,000  Level Edmonton Center
11:46AM 57.9498 -88.5445 145° Southeast  Level Estimated
11:46AM 56.9833 -88.1667 141° Southeast 500 575 37,000  Level Edmonton Center
11:47AM 57.8347 -88.3933 145° Southeast  Level Estimated
11:47AM 56.8500 -88.0000 146° Southeast 500 575 37,000  Level Edmonton Center
11:48AM 57.7195 -88.2431 145° Southeast  Level Estimated
11:48AM 56.7333 -87.8667 148° Southeast 500 575 37,000  Level Edmonton Center
11:49AM 56.6167 -87.7333 148° Southeast 500 575 37,000  Level Edmonton Center
11:50AM 56.5000 -87.5667 142° Southeast 500 575 37,000  Level Edmonton Center
11:51AM 56.3833 -87.4333 148° Southeast 510 587 37,000  Level Edmonton Center
11:52AM 56.2667 -87.3000 148° Southeast 510 587 37,000  Level Edmonton Center
11:53AM 56.1500 -87.1667 148° Southeast 510 587 37,000  Level Edmonton Center
11:54AM 56.0333 -87.0167 144° Southeast 510 587 37,000  Level Edmonton Center
11:55AM 55.9000 -86.8833 151° Southeast 510 587 37,000  Level Edmonton Center
11:56AM 55.7667 -86.7333 148° Southeast 510 587 37,000  Level Edmonton Center
11:57AM 55.6667 -86.6000 143° Southeast 510 587 37,000  Level Edmonton Center
11:58AM 55.5500 -86.4667 147° Southeast 510 587 37,000  Level Edmonton Center
11:59AM 55.4333 -86.3167 144° Southeast 510 587 37,000  Level Edmonton Center
12:00PM 55.3000 -86.2000 154° Southeast 510 587 37,000  Level Edmonton Center
12:01PM 55.1833 -86.0667 147° Southeast 520 598 37,000  Level Edmonton Center
12:02PM 55.0667 -85.9500 150° Southeast 510 587 37,000  Level Edmonton Center
12:03PM 54.9333 -85.8000 147° Southeast 510 587 37,000  Level Edmonton Center
12:04PM 54.8167 -85.6833 150° Southeast 510 587 37,000  Level Edmonton Center
12:05PM 54.6833 -85.5333 147° Southeast 520 598 37,000  Level Edmonton Center
12:06PM 54.5833 -85.4000 142° Southeast 510 587 37,000  Level Edmonton Center
12:07PM 54.4500 -85.2833 153° Southeast 510 587 37,000  Level Edmonton Center
12:08PM 54.3167 -85.1500 150° Southeast 500 575 37,000  Level Edmonton Center
12:09PM 54.2167 -85.0167 142° Southeast 510 587 37,000  Level Edmonton Center
12:10PM 54.0833 -84.8833 150° Southeast 510 587 37,000  Level Edmonton Center
12:11PM 53.9667 -84.7667 150° Southeast 500 575 37,000  Level Edmonton Center
12:12PM 53.8333 -84.6333 149° Southeast 510 587 37,000  Level Edmonton Center
12:13PM 53.7167 -84.5000 146° Southeast 510 587 37,000  Level Edmonton Center
12:14PM 53.5833 -84.4000 156° South 510 587 37,000  Level Edmonton Center
12:15PM 53.4833 -84.2833 145° Southeast 520 598 37,000  Level Edmonton Center
12:16PM 53.3500 -84.1333 146° Southeast 510 587 37,000  Level Edmonton Center
12:17PM 53.2333 -84.0167 149° Southeast 510 587 37,000  Level Edmonton Center
12:18PM 53.1167 -83.9167 153° Southeast 510 587 37,000  Level Edmonton Center
12:19PM 52.9833 -83.7833 149° Southeast 510 587 37,000  Level Edmonton Center
12:20PM 52.8500 -83.6667 152° Southeast 510 587 37,000  Level Edmonton Center
12:21PM 52.7167 -83.5333 149° Southeast 510 587 37,000  Level Edmonton Center
12:22PM 52.6167 -83.4167 145° Southeast 510 587 37,000  Level Edmonton Center
12:23PM 52.4833 -83.3167 155° Southeast 520 598 37,000  Level Edmonton Center
12:24PM 52.3667 -83.2167 152° Southeast 520 598 37,000  Level Edmonton Center
12:25PM 52.2500 -83.1000 149° Southeast 510 587 37,000  Level Edmonton Center
12:26PM 52.1167 -82.9667 148° Southeast 510 587 37,000  Level Edmonton Center
12:27PM 51.9833 -82.8667 155° Southeast 510 587 37,000  Level Edmonton Center
12:28PM 51.8667 -82.7333 145° Southeast 510 587 37,000  Level Edmonton Center
12:29PM 51.7500 -82.6333 152° Southeast 510 587 37,000  Level Edmonton Center
12:30PM 51.6167 -82.5333 155° Southeast 510 587 37,000  Level Edmonton Center
12:31PM 51.4833 -82.4000 148° Southeast 510 587 37,000  Level Edmonton Center
12:32PM 51.3833 -82.2833 144° Southeast 510 587 37,000  Level Edmonton Center
12:33PM 51.2500 -82.1833 155° Southeast 510 587 37,000  Level Edmonton Center
12:34PM 51.1333 -82.0667 148° Southeast 510 587 37,000  Level Edmonton Center
12:35PM 51.0000 -81.9667 155° Southeast 510 587 37,000  Level Edmonton Center
12:36PM 50.8833 -81.8667 152° Southeast 510 587 37,000  Level Edmonton Center
12:37PM 50.7667 -81.7500 148° Southeast 510 587 37,000  Level Edmonton Center
12:38PM 50.6333 -81.6333 151° Southeast 510 587 37,000  Level Edmonton Center
12:39PM 50.5000 -81.5333 154° Southeast 510 587 37,000  Level Edmonton Center
12:40PM 50.3833 -81.4167 147° Southeast 510 587 37,000  Level Edmonton Center
12:41PM 50.2667 -81.3167 151° Southeast 510 587 37,000  Level Edmonton Center
12:43PM 50.1333 -81.2667 166° South 510 587 37,000  Level Toronto Center
12:44PM 50.0167 -81.1500 147° Southeast 510 587 37,000  Level Toronto Center
12:45PM 49.9000 -81.0500 151° Southeast 510 587 37,000  Level Toronto Center
12:46PM 49.7667 -80.9500 154° Southeast 510 587 37,000  Level Toronto Center
12:47PM 49.6333 -80.8667 158° South 510 587 37,000  Level Toronto Center
12:48PM 49.5333 -80.7333 139° Southeast 510 587 37,000  Level Toronto Center
12:49PM 49.4000 -80.6500 158° South 510 587 37,000  Level Toronto Center
12:49PM 49.3000 -80.5833 156° South 510 587 37,000  Level Montreal Center
12:50PM 49.1667 -80.5000 158° South 500 575 37,000  Level Montreal Center
12:51PM 49.0333 -80.3833 150° Southeast 510 587 37,000  Level Montreal Center
12:52PM 48.9167 -80.2833 151° Southeast 510 587 37,000  Level Montreal Center
12:53PM 48.7833 -80.1833 154° Southeast 510 587 37,000  Level Montreal Center
12:55PM 48.6333 -80.0333 147° Southeast 520 598 37,000  Level Toronto Center
01:00PM 47.8930 -79.4720 147° Southeast 513 590 37,000  Level FlightAware
01:01PM 47.8010 -79.4030 153° Southeast 513 590 37,000  Level FlightAware
01:02PM 47.7170 -79.3390 153° Southeast 514 592 37,000  Level FlightAware
01:03PM 47.6260 -79.2710 153° Southeast 513 590 37,000  Level FlightAware
01:03PM 47.5650 -79.2260 154° Southeast 512 589 37,000  Level FlightAware
01:04PM 47.4620 -79.1490 153° Southeast 512 589 37,000  Level FlightAware
01:05PM 47.3680 -79.0780 153° Southeast 511 588 37,000  Level FlightAware
01:05PM 47.2870 -79.0190 154° Southeast 510 587 37,000  Level FlightAware
01:06PM 47.1980 -78.9520 153° Southeast 506 582 37,000  Level FlightAware
01:07PM 47.1070 -78.8860 154° Southeast 501 577 37,000  Level FlightAware
01:07PM 47.0230 -78.8240 153° Southeast 497 572 37,000  Level FlightAware
01:08PM 46.9460 -78.7680 154° Southeast 496 571 37,000  Level FlightAware
01:09PM 46.8640 -78.7080 153° Southeast 495 570 37,000  Level FlightAware
01:09PM 46.7780 -78.6460 154° Southeast 494 568 37,000  Level FlightAware
01:10PM 46.7040 -78.5920 153° Southeast 495 570 37,000  Level FlightAware
01:11PM 46.6260 -78.5360 154° Southeast 494 568 37,000  Level FlightAware
01:11PM 46.5270 -78.4640 153° Southeast 491 565 37,000  Level FlightAware
01:12PM 46.4550 -78.4130 154° Southeast 489 563 37,000  Level FlightAware
01:13PM 46.3620 -78.3470 154° Southeast 487 560 37,000  Level FlightAware
01:13PM 46.2720 -78.2820 153° Southeast 484 557 37,000  Level FlightAware
01:14PM 46.1970 -78.2300 154° Southeast 483 556 37,000  Level FlightAware
01:15PM 46.1210 -78.1740 153° Southeast 484 557 37,000  Level FlightAware
01:15PM 46.0370 -78.1000 149° Southeast 483 556 37,000  Level FlightAware
01:16PM 45.9610 -78.0340 149° Southeast 482 555 37,000  Level FlightAware
01:17PM 45.8840 -77.9680 149° Southeast 481 554 37,000  Level FlightAware
01:18PM 45.7960 -77.8950 150° Southeast 479 551 37,000  Level FlightAware
01:18PM 45.7200 -77.8320 150° Southeast 480 552 37,000  Level FlightAware
01:19PM 45.6320 -77.7590 150° Southeast 482 555 37,000  Level FlightAware
01:20PM 45.5670 -77.7040 149° Southeast 484 557 37,000  Level FlightAware
01:20PM 45.4790 -77.6290 149° Southeast 483 556 37,000  Level FlightAware
01:21PM 45.3890 -77.5540 150° Southeast 485 558 37,000  Level FlightAware
01:22PM 45.3260 -77.5010 149° Southeast 485 558 37,000  Level FlightAware
01:22PM 45.2500 -77.4380 150° Southeast 485 558 37,000  Level FlightAware
01:23PM 45.1670 -77.3680 149° Southeast 485 558 37,000  Level FlightAware
01:24PM 45.0910 -77.3060 150° Southeast 486 559 37,000  Level FlightAware
01:24PM 45.0170 -77.2430 149° Southeast 486 559 37,000  Level FlightAware
01:25PM 44.9290 -77.1710 150° Southeast 482 555 37,000  Level FlightAware
01:26PM 44.8300 -77.0910 150° Southeast 479 551 37,000  Level FlightAware
01:27PM 44.7590 -77.0330 150° Southeast 476 548 37,000  Level FlightAware
01:27PM 44.6680 -76.9570 149° Southeast 474 545 37,000  Level FlightAware
01:28PM 44.6150 -76.9160 151° Southeast 470 541 37,000  Level FlightAware
01:29PM 44.5070 -76.8280 150° Southeast 463 533 37,000  Level FlightAware
01:29PM 44.4330 -76.7680 150° Southeast 463 533 37,000  Level FlightAware
01:30PM 44.3500 -76.7010 150° Southeast 462 532 37,000  Level FlightAware
01:31PM 44.2860 -76.6490 150° Southeast 461 531 37,000  Level FlightAware
01:32PM 44.2000 -76.5790 150° Southeast 456 525 37,000  Level FlightAware
01:32PM 44.1270 -76.5220 151° Southeast 455 524 37,000  Level FlightAware
01:33PM 44.0460 -76.4550 149° Southeast 458 527 37,000  Level FlightAware
01:34PM 43.9760 -76.3890 146° Southeast 460 529 37,000  Level FlightAware
01:34PM 43.8960 -76.3090 144° Southeast 461 531 37,000  Level FlightAware
01:35PM 43.8280 -76.2420 145° Southeast 459 528 37,000  Level FlightAware
01:36PM 43.7510 -76.1640 144° Southeast 459 528 37,000  Level FlightAware
01:36PM 43.6820 -76.0960 145° Southeast 459 528 37,000  Level FlightAware
01:37PM 43.6060 -76.0210 144° Southeast 460 529 37,000  Level FlightAware
01:38PM 43.5440 -75.9610 145° Southeast 460 529 37,000  Level FlightAware
01:38PM 43.4780 -75.8950 144° Southeast 458 527 37,000  Level FlightAware
01:39PM 43.4020 -75.8210 145° Southeast 456 525 37,000  Level FlightAware
01:40PM 43.3430 -75.7640 145° Southeast 455 524 37,000  Level FlightAware
01:40PM 43.2720 -75.6960 145° Southeast 454 522 37,000  Level FlightAware
01:41PM 43.2020 -75.6280 145° Southeast 452 520 37,000  Level FlightAware
01:42PM 43.1310 -75.5590 145° Southeast 451 519 37,000  Level FlightAware
01:42PM 43.0590 -75.4900 145° Southeast 450 518 37,000  Level FlightAware
01:43PM 42.9830 -75.4160 145° Southeast 451 519 37,000  Level FlightAware
01:44PM 42.9120 -75.3490 145° Southeast 451 519 37,000  Level FlightAware
01:45PM 42.8400 -75.2810 145° Southeast 452 520 37,000  Level FlightAware
01:45PM 42.7800 -75.2240 145° Southeast 452 520 37,000  Level FlightAware
01:46PM 42.7100 -75.1570 145° Southeast 453 521 37,000 -600 Level FlightAware
01:47PM 42.6330 -75.0850 145° Southeast 456 525 36,200 -1,320 Descending FlightAware
01:47PM 42.5650 -75.0210 145° Southeast 454 522 35,200 -1,440 Descending FlightAware
01:48PM 42.4970 -74.9560 145° Southeast 456 525 34,300 -1,440 Descending FlightAware
01:49PM 42.4180 -74.8820 145° Southeast 460 529 33,200 -1,200 Descending FlightAware
01:50PM 42.3020 -74.7740 145° Southeast 461 531 32,100 -1,500 Descending FlightAware
01:50PM 42.2490 -74.7260 146° Southeast 469 540 30,800 -1,860 Descending FlightAware
01:51PM 42.1390 -74.6230 145° Southeast 472 543 29,300 -1,500 Descending FlightAware
01:52PM 42.0780 -74.5670 146° Southeast 472 543 28,500 -1,380 Descending FlightAware
01:52PM 42.0253 -74.5176 145° Southeast 469 540 28,000 -720 Descending FlightAware ADS-B
01:53PM 41.9798 -74.4687 141° Southeast 484 557 27,900  Descending FlightAware ADS-B
01:53PM 41.9420 -74.4350 146° Southeast 472 543 28,000 -2,700 Climbing FlightAware
01:54PM 41.9034 -74.3551 123° Southeast 485 558 25,600 -4,020 Descending FlightAware ADS-B
01:54PM 41.8550 -74.3080 144° Southeast 463 533 24,400 -1,860 Descending FlightAware
01:55PM 41.8550 -74.3080 144° Southeast 453 521 23,300 -1,620 Descending FlightAware
01:55PM 41.7080 -74.2270 158° South 448 516 22,400 -1,440 Descending FlightAware
01:56PM 41.6413 -74.1932 159° South 450 518 21,800 -1,260 Descending FlightAware ADS-B
01:56PM 41.5730 -74.1588 159° South 448 516 21,100 -1,260 Descending FlightAware ADS-B
01:57PM 41.4885 -74.1170 160° South 452 520 20,200 -900 Descending FlightAware ADS-B
01:58PM 41.4285 -74.0859 159° South 453 521 20,000 -240 Descending FlightAware ADS-B
01:58PM 41.3880 -74.0721 166° South 444 511 20,000  Level FlightAware ADS-B
01:58PM 41.3715 -74.0698 174° South 439 505 20,000  Level FlightAware ADS-B
01:58PM 41.3500 -74.0688 178° South 436 502 20,000  Level FlightAware ADS-B
01:58PM 41.3336 -74.0700 183° South 435 501 20,000  Level FlightAware ADS-B
01:59PM 41.2594 -74.0817 187° South 431 496 20,000 -360 Level FlightAware ADS-B
02:00PM 41.1982 -74.0919 187° South 419 482 19,600 -840 Descending FlightAware ADS-B
02:00PM 41.1716 -74.0957 186° South 417 480 19,400 -600 Descending FlightAware ADS-B
02:00PM 41.1393 -74.1010 187° South 419 482 19,300 -360 Descending FlightAware ADS-B
02:01PM 41.0967 -74.1075 187° South 419 482 19,200 -240 Descending FlightAware ADS-B
02:01PM 41.0814 -74.1099 187° South 418 481 19,200  Level FlightAware ADS-B
02:01PM 41.0396 -74.1162 186° South 408 470 19,200  Level FlightAware ADS-B
02:01PM 41.0248 -74.1186 187° South 394 453 19,200  Level FlightAware ADS-B
02:02PM 40.9853 -74.1241 186° South 365 420 19,200 -240 Level FlightAware ADS-B
02:02PM 40.9729 -74.1261 187° South 357 411 19,100 -540 Descending FlightAware ADS-B
02:02PM 40.9471 -74.1283 184° South 344 396 19,000 -540 Descending FlightAware ADS-B
02:02PM 40.9364 -74.1265 173° South 341 392 18,900 -1,380 Descending FlightAware ADS-B
02:02PM 40.9331 -74.1257 170° South 342 394 18,800 -1,500 Descending FlightAware ADS-B
02:02PM 40.9239 -74.1222 164° South 341 392 18,700 -1,200 Descending FlightAware ADS-B
02:02PM 40.9179 -74.1190 158° South 341 392 18,600 -1,020 Descending FlightAware ADS-B
02:02PM 40.9152 -74.1173 155° Southeast 341 392 18,600 -780 Level FlightAware ADS-B
02:02PM 40.9074 -74.1109 148° Southeast 341 392 18,500 -1,500 Descending FlightAware ADS-B
02:02PM 40.9042 -74.1073 140° Southeast 341 392 18,400 -1,200 Descending FlightAware ADS-B
02:02PM 40.9010 -74.1047 148° Southeast 341 392 18,400 -900 Level FlightAware ADS-B
02:03PM 40.8965 -74.0992 137° Southeast 342 394 18,300 -1,140 Descending FlightAware ADS-B
02:03PM 40.8896 -74.0883 130° Southeast 343 395 18,200 -1,500 Descending FlightAware ADS-B
02:03PM 40.8881 -74.0867 141° Southeast 342 394 18,100 -1,380 Descending FlightAware ADS-B
02:03PM 40.8738 -74.0573 123° Southeast 338 389 17,800 -1,200 Descending FlightAware ADS-B
02:03PM 40.8629 -74.0349 123° Southeast 334 384 17,500 -1,620 Descending FlightAware ADS-B
02:04PM 40.8415 -73.9928 124° Southeast 332 382 16,800 -1,800 Descending FlightAware ADS-B
02:04PM 40.8361 -73.9828 126° Southeast 331 381 16,600 -1,620 Descending FlightAware ADS-B
02:04PM 40.8071 -73.9308 126° Southeast 326 375 15,800 -1,440 Descending FlightAware ADS-B
02:05PM 40.7787 -73.8806 127° Southeast 318 366 15,100 -1,260 Descending FlightAware ADS-B
02:05PM 40.7646 -73.8561 127° Southeast 327 376 14,800 -1,200 Descending FlightAware ADS-B
02:05PM 40.7514 -73.8337 128° Southeast 309 356 14,500 -1,380 Descending FlightAware ADS-B
02:06PM 40.7232 -73.7852 127° Southeast 302 348 13,700 -1,380 Descending FlightAware ADS-B
02:07PM 40.6735 -73.7210 136° Southeast 289 333 12,600 -1,380 Descending FlightAware ADS-B
02:07PM 40.6348 -73.7091 167° South 281 323 11,900 -1,620 Descending FlightAware ADS-B
02:08PM 40.5878 -73.6950 167° South 275 316 10,800 -1,680 Descending FlightAware ADS-B
02:08PM 40.5583 -73.6910 174° South 271 312 10,200 -1,500 Descending FlightAware ADS-B
02:08PM 40.5373 -73.6897 177° South 269 310 9,800 -1,680 Descending FlightAware ADS-B
02:09PM 40.5124 -73.6883 178° South 264 304 9,200 -1,920 Descending FlightAware ADS-B
02:09PM 40.4940 -73.6871 177° South 262 302 8,700 -2,160 Descending FlightAware ADS-B
02:09PM 40.4747 -73.6855 176° South 261 300 8,100 -2,220 Descending FlightAware ADS-B
02:10PM 40.4549 -73.6835 176° South 259 298 7,500 -2,100 Descending FlightAware ADS-B
02:10PM 40.4369 -73.6819 176° South 260 299 7,000 -2,160 Descending FlightAware ADS-B
02:10PM 40.4242 -73.6815 179° South 259 298 6,600 -2,220 Descending FlightAware ADS-B
02:10PM 40.3960 -73.7014 208° Southwest 262 302 5,600 -2,280 Descending FlightAware ADS-B
02:11PM 40.3925 -73.7065 228° Southwest 262 302 5,400 -2,220 Descending FlightAware ADS-B
02:11PM 40.3885 -73.7158 241° Southwest 261 300 5,200 -2,040 Descending FlightAware ADS-B
02:11PM 40.3840 -73.7271 242° Southwest 262 302 4,900 -1,920 Descending FlightAware ADS-B
02:11PM 40.3772 -73.7474 246° West 260 299 4,500 -1,260 Descending FlightAware ADS-B
02:11PM 40.3679 -73.7755 247° West 260 299 4,200 -1,020 Descending FlightAware ADS-B
02:12PM 40.3652 -73.7991 261° West 240 276 3,900 -1,140 Descending FlightAware ADS-B
02:12PM 40.3678 -73.8208 279° West 225 259 3,600 -780 Descending FlightAware ADS-B
02:13PM 40.4040 -73.8920 304° West 222 255 2,900 -600 Descending FlightAware
02:13PM 40.4130 -73.9020 320° Northwest 205 236 2,900  Level FlightAware
02:13PM 40.4240 -73.9080 337° Northwest 197 227 2,900  Level FlightAware
02:14PM 40.4460 -73.9130 350° North 192 221 2,900  Level FlightAware
02:14PM 40.4620 -73.9100 North 189 217 2,900  Level FlightAware
02:15PM 40.4830 -73.8940 30° Northeast 197 227 2,900 -300 Level FlightAware
02:15PM 40.5000 -73.8810 30° Northeast 195 224 2,700 -900 Descending FlightAware
02:15PM 40.5220 -73.8630 32° Northeast 177 204 2,200 -1,020 Descending FlightAware
02:16PM 40.5320 -73.8560 28° Northeast 162 186 2,000 -900 Descending FlightAware
02:16PM 40.5490 -73.8430 30° Northeast 148 170 1,600 -780 Descending FlightAware
02:17PM 40.5650 -73.8300 32° Northeast 144 166 1,300 -780 Descending FlightAware
02:17PM 40.5810 -73.8180 30° Northeast 140 161 900 -900 Descending FlightAware
02:17PM 40.5970 -73.8050 32° Northeast 143 165 500 -780 Descending FlightAware
02:18PM 40.6130 -73.7930 30° Northeast 142 163 200 -660 Descending FlightAware
02:18PM 40.6300 -73.7800 30° Northeast 110 127 -420 Descending FlightAware
02:19PM 40.6330 -73.7770 37° Northeast 58 67  Level FlightAware
02:19PM 40.6350 -73.7750 37° Northeast 25 29  Level FlightAware